DRI Storm Peak Lab. Weather observations

Data are for 5 minute period ending at time listed.
 Day   Time    Ave.   Ave.  Ave.  Vector  Max.   Total    Baro.    Solar      Aerosol      Ave.  Ultrafine   Snow  
  of    of     Air    Rel.  Wind   Wind   Wind  Precip.   Pres.  Radiation   Aerosol      Ozone   Aerosol    Depth 
Year   Day     Temp.  Hum.  Speed  Dir.   Gust                               Ave.   Max.            Ave.           
2016   (MST)    F      %     mph   deg.    mph    in.      mb.     w/m2         #/cm3      ppbv    #/cm3      in.  
-------------------------------------------------------------------------------------------------------------------
 237    4:10   40.8    84    7.6   121    12.4   999.00    696.3    999.0    999000   999000   999.0    999000   999.0
 237    4:15   40.6    85    5.2   124     8.7   999.00    696.3    999.0    999000   999000   999.0    999000   999.0
 237    4:20   40.4    86    6.3   121    12.4   999.00    696.3    999.0    999000   999000   999.0    999000   999.0
 237    4:25   40.4    86    5.7   123    12.4   999.00    696.3    999.0    999000   999000   999.0    999000   999.0
 237    4:30   40.2    86    5.1   123     9.1   999.00    696.3    999.0    999000   999000   999.0    999000   999.0
 237    4:35   40.3    85    5.1   124    10.9   999.00    696.3    999.0    999000   999000   999.0    999000   999.0
 237    4:40   40.5    84    6.7   123    11.5   999.00    696.3    999.0    999000   999000   999.0    999000   999.0
 237    4:45   40.5    84    3.9   125     6.8   999.00    696.4    999.0    999000   999000   999.0    999000   999.0
 237    4:50   40.5    84    5.2   122     9.6   999.00    696.4    999.0    999000   999000   999.0    999000   999.0
 237    4:55   40.5    84    4.1   120     6.5   999.00    696.4    999.0    999000   999000   999.0    999000   999.0
 237    5:00   40.4    84    4.2   117     7.0   999.00    696.5    999.0    999000   999000   999.0    999000   999.0
 237    5:05   40.4    83    4.8   116     7.8   999.00    696.5    999.0    999000   999000   999.0    999000   999.0
 237    5:10   40.6    82    4.8   120     7.2   999.00    696.5    999.0    999000   999000   999.0    999000   999.0
 237    5:15   40.6    82    6.6   123     9.4   999.00    696.5    999.0    999000   999000   999.0    999000   999.0
 237    5:20   40.7    81    5.3   122     9.2   999.00    696.5    999.0    999000   999000   999.0    999000   999.0
 237    5:25   40.7    80    3.5   117     5.7   999.00    696.5    999.0    999000   999000   999.0    999000   999.0
 237    5:30   40.9    79    3.8   118     5.3   999.00    696.5    999.0    999000   999000   999.0    999000   999.0
 237    5:35   41.0    78    3.1   113     4.4   999.00    696.5    999.0    999000   999000   999.0    999000   999.0
 237    5:40   41.2    77    3.4   103     5.3   999.00    696.6    999.0    999000   999000   999.0    999000   999.0
 237    5:45   41.2    77    4.3   110     7.9   999.00    696.5    999.0    999000   999000   999.0    999000   999.0
 237    5:50   41.2    77    4.6   110     7.4   999.00    696.5    999.0    999000   999000   999.0    999000   999.0
 237    5:55   40.9    78    3.5   110     4.8   999.00    696.5    999.0    999000   999000   999.0    999000   999.0
 237    6:00   40.9    78    3.5   113     4.2   999.00    696.5    999.0    999000   999000   999.0    999000   999.0
 237    6:05   41.0    77    3.3   114     3.7   999.00    696.6    999.0    999000   999000   999.0    999000   999.0
 237    6:10   41.5    75    3.6   114     4.0   999.00    696.6    999.0    999000   999000   999.0    999000   999.0
 237    6:15   41.9    73    3.8   115     4.2   999.00    696.6    999.0    999000   999000   999.0    999000   999.0
 237    6:20   42.1    72    4.0   115     4.8   999.00    696.6    999.0    999000   999000   999.0    999000   999.0
 237    6:25   42.7    69    4.4   115     6.3   999.00    696.6    999.0    999000   999000   999.0    999000   999.0
 237    6:30   43.8    65    5.9   149     7.6   999.00    696.6    999.0    999000   999000   999.0    999000   999.0
 237    6:35   43.9    64    6.3   173     8.1   999.00    696.7    999.0    999000   999000   999.0    999000   999.0
 237    6:40   43.7    65    5.9   170     8.7   999.00    696.7    999.0    999000   999000   999.0    999000   999.0
 237    6:45   43.2    68    5.2   163     6.6   999.00    696.7    999.0    999000   999000   999.0    999000   999.0
 237    6:50   42.9    68    5.4   166     7.2   999.00    696.7    999.0    999000   999000   999.0    999000   999.0
 237    6:55   43.3    66    6.3   172     7.9   999.00    696.7    999.0    999000   999000   999.0    999000   999.0
 237    7:00   43.5    66    6.3   173     8.1   999.00    696.7    999.0    999000   999000   999.0    999000   999.0
 237    7:05   43.6    65    5.1   180     7.0   999.00    696.8    999.0    999000   999000   999.0    999000   999.0
 237    7:10   43.9    65    6.2   179     7.8   999.00    696.8    999.0    999000   999000   999.0    999000   999.0
 237    7:15   43.9    64    5.9   186     8.3   999.00    696.8    999.0    999000   999000   999.0    999000   999.0
 237    7:20   44.1    64    5.7   186     7.9   999.00    696.9    999.0    999000   999000   999.0    999000   999.0
 237    7:25   44.4    64    5.1   196     6.8   999.00    696.8    999.0    999000   999000   999.0    999000   999.0
 237    7:30   44.7    64    4.0   194     6.1   999.00    696.8    999.0    999000   999000   999.0    999000   999.0
 237    7:35   45.2    64    4.1   187     5.5   999.00    696.9    999.0    999000   999000   999.0    999000   999.0
 237    7:40   46.1    63    3.7   184     5.7   999.00    696.9    999.0    999000   999000   999.0    999000   999.0
 237    7:45   45.9    62    4.2   181     6.8   999.00    696.9    999.0    999000   999000   999.0    999000   999.0
 237    7:50   46.2    62    4.5   178     6.6   999.00    696.9    999.0    999000   999000   999.0    999000   999.0
 237    7:55   46.5    62    3.6   142     5.7   999.00    696.9    999.0    999000   999000   999.0    999000   999.0
 237    8:00   46.7    61    3.2   152     4.6   999.00    696.9    999.0    999000   999000   999.0    999000   999.0
 237    8:05   46.8    61    4.1   156     6.1   999.00    696.8    999.0    999000   999000   999.0    999000   999.0
 237    8:10   47.1    62    3.0   140     5.2   999.00    696.8    999.0    999000   999000   999.0    999000   999.0
 237    8:15   47.1    63    3.3   176     6.5   999.00    696.8    999.0    999000   999000   999.0    999000   999.0
 237    8:20   46.7    62    3.9   189     6.1   999.00    696.9    999.0    999000   999000   999.0    999000   999.0
 237    8:25   47.5    66    2.5   184     4.6   999.00    696.8    999.0    999000   999000   999.0    999000   999.0
 237    8:30   47.2    63    3.9   196     5.9   999.00    696.9    999.0    999000   999000   999.0    999000   999.0
 237    8:35   47.3    64    3.5   161     5.7   999.00    696.9    999.0    999000   999000   999.0    999000   999.0
 237    8:40   48.4    62    2.5   143     5.2   999.00    696.9    999.0    999000   999000   999.0    999000   999.0
 237    8:45   47.8    63    3.4   195     5.2   999.00    696.9    999.0    999000   999000   999.0    999000   999.0
 237    8:50   47.4    64    3.7   199     5.9   999.00    696.9    999.0    999000   999000   999.0    999000   999.0
 237    8:55   46.9    65    3.9   195     6.1   999.00    696.9    999.0    999000   999000   999.0    999000   999.0
 237    9:00   47.6    65    2.6   162     4.2   999.00    696.9    999.0    999000   999000   999.0    999000   999.0
 237    9:05   48.7    61    3.9   163     5.5   999.00    696.9    999.0    999000   999000   999.0    999000   999.0
 237    9:10   49.5    58    3.3   153     4.8   999.00    697.0    999.0    999000   999000   999.0    999000   999.0
 237    9:15   49.8    59    2.8   157     6.6   999.00    697.0    999.0    999000   999000   999.0    999000   999.0
 237    9:20   50.6    60    2.4   149     4.2   999.00    697.0    999.0    999000   999000   999.0    999000   999.0
 237    9:25   48.9    63    3.5   192     5.2   999.00    697.0    999.0    999000   999000   999.0    999000   999.0
 237    9:30   47.7    65    4.3   196     6.5   999.00    696.9    999.0    999000   999000   999.0    999000   999.0
 237    9:35   48.7    64    4.2   180     5.7   999.00    696.9    999.0    999000   999000   999.0    999000   999.0
 237    9:40   50.1    63    3.3   170     6.6   999.00    696.8    999.0    999000   999000   999.0    999000   999.0
 237    9:45   51.3    59    3.0   166     5.3   999.00    696.8    999.0    999000   999000   999.0    999000   999.0
 237    9:50   51.3    62    2.8   156     5.0   999.00    696.9    999.0    999000   999000   999.0    999000   999.0
 237    9:55   51.1    61    4.4   154     7.4   999.00    696.9    999.0    999000   999000   999.0    999000   999.0
 237   10:00   51.1    60    4.2   159     7.4   999.00    696.9    999.0    999000   999000   999.0    999000   999.0
 237   10:05   51.9    59    2.9   165     5.3   999.00    696.8    999.0    999000   999000   999.0    999000   999.0
 237   10:10   52.6    57    3.3   146     5.2   999.00    696.9    999.0    999000   999000   999.0    999000   999.0
 237   10:15   51.5    56    4.1   141     5.9   999.00    696.8    999.0    999000   999000   999.0    999000   999.0
 237   10:20   52.4    57    3.3   128     5.3   999.00    696.8    999.0    999000   999000   999.0    999000   999.0
 237   10:25   53.0    56    4.2   134     7.4   999.00    696.8    999.0    999000   999000   999.0    999000   999.0
 237   10:30   53.8    52    3.2   133     5.9   999.00    696.8    999.0    999000   999000   999.0    999000   999.0
 237   10:35   52.4    54    4.2   166     7.0   999.00    696.8    999.0    999000   999000   999.0    999000   999.0
 237   10:40   53.1    57    4.1   152     8.5   999.00    696.7    999.0    999000   999000   999.0    999000   999.0
 237   10:45   54.2    55    3.0   173     5.2   999.00    696.7    999.0    999000   999000   999.0    999000   999.0
 237   10:50   52.5    59    5.5   234     8.3   999.00    696.7    999.0    999000   999000   999.0    999000   999.0
 237   10:55   51.0    61    4.8   230     6.8   999.00    696.7    999.0    999000   999000   999.0    999000   999.0
 237   11:00   51.9    59    3.3   254     5.5   999.00    696.7    999.0    999000   999000   999.0    999000   999.0
 237   11:05   52.2    56    4.0   231     7.4   999.00    696.6    999.0    999000   999000   999.0    999000   999.0
 237   11:10   51.8    58    3.7   254     6.5   999.00    696.6    999.0    999000   999000   999.0    999000   999.0
 237   11:15   52.6    52    4.0   266     6.6   999.00    696.6    999.0    999000   999000   999.0    999000   999.0
 237   11:20   52.4    51    4.7   269     7.8   999.00    696.6    999.0    999000   999000   999.0    999000   999.0
 237   11:25   52.5    52    4.3   270     9.4   999.00    696.5    999.0    999000   999000   999.0    999000   999.0
 237   11:30   52.0    40    6.7   257    10.9   999.00    696.5    999.0    999000   999000   999.0    999000   999.0
 237   11:35   52.5    43    3.5   258     6.5   999.00    696.4    999.0    999000   999000   999.0    999000   999.0
 237   11:40   53.0    51    2.5   261     3.8   999.00    696.3    999.0    999000   999000   999.0    999000   999.0
 237   11:45   53.8    46    5.1   265    11.8   999.00    696.3    999.0    999000   999000   999.0    999000   999.0
 237   11:50   53.4    47    3.7   274     6.8   999.00    696.2    999.0    999000   999000   999.0    999000   999.0
 237   11:55   54.9    44    4.8   264     8.9   999.00    696.2    999.0    999000   999000   999.0    999000   999.0
 237   12:00   55.3    40    5.2   244     8.5   999.00    696.2    999.0    999000   999000   999.0    999000   999.0
 237   12:05   53.9    36    3.6   247     5.0   999.00    696.1    999.0    999000   999000   999.0    999000   999.0
 237   12:10   54.8    39    5.6   271     9.1   999.00    696.0    999.0    999000   999000   999.0    999000   999.0
 237   12:15   54.4    41    7.1   301    11.5   999.00    696.0    999.0    999000   999000   999.0    999000   999.0
 237   12:20   53.5    36    5.9   286    10.6   999.00    696.0    999.0    999000   999000   999.0    999000   999.0
 237   12:25   53.7    36    6.6   283    11.1   999.00    696.0    999.0    999000   999000   999.0    999000   999.0
 237   12:30   55.3    39    6.9   289    14.3   999.00    696.0    999.0    999000   999000   999.0    999000   999.0
 237   12:35   54.2    39    8.2   291    14.3   999.00    695.9    999.0    999000   999000   999.0    999000   999.0
 237   12:40   53.1    44    8.2   266    11.7   999.00    695.8    999.0    999000   999000   999.0    999000   999.0
 237   12:45   52.5    47    5.7   271     8.7   999.00    695.8    999.0    999000   999000   999.0    999000   999.0
 237   12:50   51.7    48    5.4   267    11.1   999.00    695.9    999.0    999000   999000   999.0    999000   999.0
 237   12:55   52.1    49    4.4   288     8.5   999.00    695.9    999.0    999000   999000   999.0    999000   999.0
 237   13:00   53.3    44    6.5   296     9.4   999.00    695.9    999.0    999000   999000   999.0    999000   999.0
 237   13:05   52.8    39    9.0   301    12.8   999.00    695.7    999.0    999000   999000   999.0    999000   999.0
 237   13:10   51.5    40   11.9   300    15.2   999.00    695.6    999.0    999000   999000   999.0    999000   999.0
 237   13:15   51.1    40   10.3   300    14.6   999.00    695.6    999.0    999000   999000   999.0    999000   999.0
 237   13:20   50.8    42   10.8   252    14.6   999.00    695.8    999.0    999000   999000   999.0    999000   999.0
 237   13:25   49.2    50    7.7   216    13.7   999.00    695.8    999.0    999000   999000   999.0    999000   999.0
 237   13:30   49.1    51    9.8   186    13.9   999.00    695.8    999.0    999000   999000   999.0    999000   999.0
 237   13:35   49.2    51    7.9   195    13.9   999.00    695.9    999.0    999000   999000   999.0    999000   999.0
 237   13:40   48.6    53   11.9   204    22.6   999.00    695.9    999.0    999000   999000   999.0    999000   999.0
 237   13:45   46.7    60   18.9   190    27.5   999.00    695.9    999.0    999000   999000   999.0    999000   999.0
 237   13:50   45.8    57   10.0   194    16.9   999.00    695.9    999.0    999000   999000   999.0    999000   999.0
 237   13:55   45.8    54   14.0   158    20.6   999.00    695.8    999.0    999000   999000   999.0    999000   999.0
 237   14:00   47.0    57    5.7   144    10.4   999.00    695.8    999.0    999000   999000   999.0    999000   999.0
 237   14:05   50.5    53    5.4   135    10.2   999.00    695.8    999.0    999000   999000   999.0    999000   999.0
 237   14:10   52.7    50    4.5   125    10.0   999.00    695.8    999.0    999000   999000   999.0    999000   999.0
 237   14:15   52.6    48    3.9   123     9.2   999.00    695.8    999.0    999000   999000   999.0    999000   999.0
 237   14:20   49.5    52    4.0   126     5.3   999.00    695.8    999.0    999000   999000   999.0    999000   999.0
 237   14:25   49.3    54    2.9   127     4.6   999.00    695.7    999.0    999000   999000   999.0    999000   999.0
 237   14:30   50.7    50    3.1   128     4.8   999.00    695.8    999.0    999000   999000   999.0    999000   999.0
 237   14:35   51.6    44    5.8   186    13.3   999.00    695.7    999.0    999000   999000   999.0    999000   999.0
 237   14:40   52.0    42   10.0   221    16.1   999.00    695.6    999.0    999000   999000   999.0    999000   999.0
 237   14:45   52.4    41    6.6   214    15.0   999.00    695.6    999.0    999000   999000   999.0    999000   999.0
 237   14:50   53.4    42    8.6   218    14.8   999.00    695.5    999.0    999000   999000   999.0    999000   999.0
 237   14:55   53.2    41    8.2   227    13.3   999.00    695.5    999.0    999000   999000   999.0    999000   999.0
 237   15:00   52.5    42   10.5   234    15.0   999.00    695.6    999.0    999000   999000   999.0    999000   999.0
 237   15:05   52.3    42    9.4   236    13.7   999.00    695.6    999.0    999000   999000   999.0    999000   999.0
 237   15:10   52.8    42   10.1   225    14.8   999.00    695.6    999.0    999000   999000   999.0    999000   999.0
 237   15:15   52.7    42    9.4   219    14.1   999.00    695.5    999.0    999000   999000   999.0    999000   999.0
 237   15:20   52.2    42   12.6   218    16.5   999.00    695.5    999.0    999000   999000   999.0    999000   999.0
 237   15:25   51.8    43    9.1   217    12.8   999.00    695.6    999.0    999000   999000   999.0    999000   999.0
 237   15:30   52.1    44    6.5   198     9.4   999.00    695.6    999.0    999000   999000   999.0    999000   999.0
 237   15:35   52.8    44    8.2   234    13.9   999.00    695.5    999.0    999000   999000   999.0    999000   999.0
 237   15:40   52.2    46    7.7   329    15.2   999.00    695.4    999.0    999000   999000   999.0    999000   999.0
 237   15:45   51.5    46    8.3   343    16.1   999.00    695.5    999.0    999000   999000   999.0    999000   999.0
 237   15:50   50.4    47    7.6   328    12.2   999.00    695.6    999.0    999000   999000   999.0    999000   999.0
 237   15:55   50.3    47    5.9   318    14.3   999.00    695.6    999.0    999000   999000   999.0    999000   999.0
 237   16:00   51.4    46    5.5   285    12.0   999.00    695.6    999.0    999000   999000   999.0    999000   999.0
 237   16:05   53.3    43    5.9   259    10.7   999.00    695.6    999.0    999000   999000   999.0    999000   999.0
 237   16:10   54.8    41    4.1   264     6.6   999.00    695.5    999.0    999000   999000   999.0    999000   999.0
 237   16:15   54.5    41    6.8   282    11.8   999.00    695.4    999.0    999000   999000   999.0    999000   999.0
 237   16:20   54.9    40    8.5   274    13.9   999.00    695.4    999.0    999000   999000   999.0    999000   999.0
 237   16:25   54.5    38   13.8   279    19.5   999.00    695.4    999.0    999000   999000   999.0    999000   999.0
 237   16:30   53.4    40   11.3   304    15.8   999.00    695.3    999.0    999000   999000   999.0    999000   999.0
 237   16:35   53.1    41   10.4   317    15.4   999.00    695.3    999.0    999000   999000   999.0    999000   999.0
 237   16:40   54.0    41    8.9   302    14.3   999.00    695.4    999.0    999000   999000   999.0    999000   999.0
 237   16:45   54.0    40   10.7   307    15.2   999.00    695.3    999.0    999000   999000   999.0    999000   999.0
 237   16:50   53.2    42    9.9   327    14.8   999.00    695.4    999.0    999000   999000   999.0    999000   999.0
 237   16:55   53.3    42    9.2   328    14.4   999.00    695.3    999.0    999000   999000   999.0    999000   999.0
 237   17:00   52.5    38    7.9   321    11.8   999.00    695.3    999.0    999000   999000   999.0    999000   999.0
 237   17:05   51.9    40   10.6   317    13.9   999.00    695.3    999.0    999000   999000   999.0    999000   999.0
 237   17:10   51.3    41    5.9   316     8.3   999.00    695.4    999.0    999000   999000   999.0    999000   999.0
 237   17:15   51.2    42    5.1   326     8.3   999.00    695.4    999.0    999000   999000   999.0    999000   999.0
 237   17:20   51.6    42    4.5   327     7.6   999.00    695.4    999.0    999000   999000   999.0    999000   999.0
 237   17:25   52.4    39    7.0   319     9.8   999.00    695.3    999.0    999000   999000   999.0    999000   999.0
 237   17:30   52.1    39    5.3   314     8.5   999.00    695.3    999.0    999000   999000   999.0    999000   999.0
 237   17:35   51.5    40    4.9   315     8.1   999.00    695.4    999.0    999000   999000   999.0    999000   999.0
 237   17:40   51.1    40    5.6   311     7.6   999.00    695.4    999.0    999000   999000   999.0    999000   999.0
 237   17:45   50.7    41    5.2   312     8.3   999.00    695.3    999.0    999000   999000   999.0    999000   999.0
 237   17:50   50.7    40    4.5   310     7.4   999.00    695.3    999.0    999000   999000   999.0    999000   999.0
 237   17:55   50.5    42    3.7   310     8.1   999.00    695.3    999.0    999000   999000   999.0    999000   999.0
 237   18:00   50.4    41    6.0   309     7.9   999.00    695.4    999.0    999000   999000   999.0    999000   999.0
 237   18:05   50.3    41    4.0   312     6.5   999.00    695.5    999.0    999000   999000   999.0    999000   999.0
 237   18:10   50.1    42    3.5   312     5.3   999.00    695.5    999.0    999000   999000   999.0    999000   999.0
 237   18:15   49.9    43    3.3   313     5.0   999.00    695.5    999.0    999000   999000   999.0    999000   999.0
 237   18:20   49.9    43    3.6   313     5.2   999.00    695.5    999.0    999000   999000   999.0    999000   999.0
 237   18:25   49.8    44    3.7   315     5.2   999.00    695.5    999.0    999000   999000   999.0    999000   999.0
 237   18:30   49.5    45    2.3   315     3.5   999.00    695.6    999.0    999000   999000   999.0    999000   999.0
 237   18:35   48.7    52    4.8     2     8.1   999.00    695.6    999.0    999000   999000   999.0    999000   999.0
 237   18:40   47.6    56    7.3    75    13.3   999.00    695.5    999.0    999000   999000   999.0    999000   999.0
 237   18:45   47.2    58    2.3    74     5.0   999.00    695.7    999.0    999000   999000   999.0    999000   999.0
 237   18:50   47.1    57    2.0    75     2.9   999.00    695.8    999.0    999000   999000   999.0    999000   999.0
 237   18:55   47.9    49    3.2    78     6.3   999.00    695.7    999.0    999000   999000   999.0    999000   999.0
 237   19:00   47.9    56    3.5    79     6.3   999.00    695.6    999.0    999000   999000   999.0    999000   999.0
 237   19:05   47.3    53    2.2    81     4.6   999.00    695.6    999.0    999000   999000   999.0    999000   999.0
 237   19:10   47.4    50    2.3   100     5.0   999.00    695.5    999.0    999000   999000   999.0    999000   999.0
 237   19:15   47.3    52    2.7   104     3.8   999.00    695.6    999.0    999000   999000   999.0    999000   999.0
 237   19:20   47.0    55    3.0   103     7.8   999.00    695.7    999.0    999000   999000   999.0    999000   999.0
 237   19:25   45.4    63    5.7    98     8.5   999.00    695.8    999.0    999000   999000   999.0    999000   999.0
 237   19:30   44.9    64    3.1    99     6.6   999.00    695.9    999.0    999000   999000   999.0    999000   999.0
 237   19:35   45.2    62    2.5   101     4.4   999.00    696.0    999.0    999000   999000   999.0    999000   999.0
 237   19:40   45.8    60    5.4   105     9.6   999.00    696.2    999.0    999000   999000   999.0    999000   999.0
 237   19:45   46.2    56    4.1   256     8.9   999.00    696.5    999.0    999000   999000   999.0    999000   999.0
 237   19:50   45.5    58    2.0   336     2.7   999.00    696.2    999.0    999000   999000   999.0    999000   999.0
 237   19:55   45.3    57    2.6    12     5.0   999.00    696.3    999.0    999000   999000   999.0    999000   999.0
 237   20:00   45.8    53    7.2   172    18.7   999.00    696.3    999.0    999000   999000   999.0    999000   999.0
 237   20:05   46.7    49    7.1   174    10.9   999.00    696.1    999.0    999000   999000   999.0    999000   999.0
 237   20:10   46.2    51    6.0   156    11.8   999.00    696.0    999.0    999000   999000   999.0    999000   999.0
 237   20:15   46.3    48    5.4   159     9.1   999.00    696.1    999.0    999000   999000   999.0    999000   999.0
 237   20:20   46.9    46    5.5   198     8.3   999.00    696.2    999.0    999000   999000   999.0    999000   999.0
 237   20:25   46.5    49    6.3   167     8.5   999.00    696.2    999.0    999000   999000   999.0    999000   999.0
 237   20:30   45.5    53    7.4   138     9.2   999.00    696.1    999.0    999000   999000   999.0    999000   999.0
 237   20:35   45.0    55    4.1   126     7.6   999.00    696.1    999.0    999000   999000   999.0    999000   999.0
 237   20:40   44.4    58    3.4   123     6.1   999.00    696.1    999.0    999000   999000   999.0    999000   999.0
 237   20:45   44.1    61    4.7   122     8.3   999.00    696.1    999.0    999000   999000   999.0    999000   999.0
 237   20:50   44.0    63    3.6   121     7.0   999.00    696.2    999.0    999000   999000   999.0    999000   999.0
 237   20:55   44.0    64    2.6   134     6.1   999.00    696.2    999.0    999000   999000   999.0    999000   999.0
 237   21:00   43.8    64    2.9   136     4.6   999.00    696.2    999.0    999000   999000   999.0    999000   999.0
 237   21:05   43.6    66    3.9   135     7.6   999.00    696.2    999.0    999000   999000   999.0    999000   999.0
 237   21:10   43.3    67    3.8   134     8.1   999.00    696.2    999.0    999000   999000   999.0    999000   999.0
 237   21:15   42.9    68    4.9   128    10.0   999.00    696.1    999.0    999000   999000   999.0    999000   999.0
 237   21:20   42.8    70    4.9   124    12.6   999.00    696.2    999.0    999000   999000   999.0    999000   999.0
 237   21:25   42.6    71    4.5   127     8.9   999.00    696.2    999.0    999000   999000   999.0    999000   999.0
 237   21:30   42.5    71    5.4   121    10.6   999.00    696.2    999.0    999000   999000   999.0    999000   999.0
 237   21:35   42.6    71    6.4   123    11.8   999.00    696.1    999.0    999000   999000   999.0    999000   999.0
 237   21:40   42.7    71    6.2   124    10.7   999.00    696.1    999.0    999000   999000   999.0    999000   999.0
 237   21:45   42.7    71    6.1   124    10.9   999.00    696.1    999.0    999000   999000   999.0    999000   999.0
 237   21:50   42.7    70    6.6   123    13.5   999.00    696.1    999.0    999000   999000   999.0    999000   999.0
 237   21:55   42.8    69    5.7   120    10.4   999.00    696.1    999.0    999000   999000   999.0    999000   999.0
 237   22:00   42.8    69    6.0   124     8.9   999.00    696.1    999.0    999000   999000   999.0    999000   999.0
 237   22:05   42.6    70    3.7   124     7.6   999.00    696.0    999.0    999000   999000   999.0    999000   999.0
 237   22:10   42.5    71    7.1   125    13.2   999.00    696.0    999.0    999000   999000   999.0    999000   999.0
 237   22:15   42.4    73    7.9   121    14.1   999.00    695.9    999.0    999000   999000   999.0    999000   999.0
 237   22:20   42.0    73    7.9   127    13.2   999.00    695.9    999.0    999000   999000   999.0    999000   999.0
 237   22:25   42.0    72    6.6   127    14.3   999.00    696.0    999.0    999000   999000   999.0    999000   999.0
 237   22:30   41.9    73    7.9   122    13.0   999.00    695.9    999.0    999000   999000   999.0    999000   999.0
 237   22:35   41.7    74    8.6   124    16.1   999.00    695.9    999.0    999000   999000   999.0    999000   999.0
 237   22:40   41.6    74    8.4   125    15.0   999.00    695.9    999.0    999000   999000   999.0    999000   999.0
 237   22:45   41.7    73    8.2   126    13.3   999.00    695.9    999.0    999000   999000   999.0    999000   999.0
 237   22:50   41.7    73    4.8   123     9.8   999.00    695.9    999.0    999000   999000   999.0    999000   999.0
 237   22:55   41.6    73    5.4   123    10.2   999.00    696.0    999.0    999000   999000   999.0    999000   999.0
 237   23:00   41.6    74    5.6   126     9.4   999.00    695.9    999.0    999000   999000   999.0    999000   999.0
 237   23:05   41.6    74    5.5   121    11.5   999.00    695.9    999.0    999000   999000   999.0    999000   999.0
 237   23:10   41.4    75    6.2   124    11.7   999.00    696.0    999.0    999000   999000   999.0    999000   999.0
 237   23:15   41.0    77    6.3   125    12.6   999.00    695.9    999.0    999000   999000   999.0    999000   999.0
 237   23:20   40.9    77    8.2   127    12.8   999.00    695.9    999.0    999000   999000   999.0    999000   999.0
 237   23:25   40.9    77    6.1   128     9.8   999.00    695.9    999.0    999000   999000   999.0    999000   999.0
 237   23:30   40.8    76    5.3   125    10.4   999.00    695.9    999.0    999000   999000   999.0    999000   999.0
 237   23:35   40.9    76    9.1   128    12.8   999.00    695.9    999.0    999000   999000   999.0    999000   999.0
 237   23:40   41.1    75    7.6   130    11.3   999.00    695.9    999.0    999000   999000   999.0    999000   999.0
 237   23:45   41.1    74    8.2   130    11.7   999.00    695.9    999.0    999000   999000   999.0    999000   999.0
 237   23:50   41.3    73    7.4   126     9.1   999.00    696.0    999.0    999000   999000   999.0    999000   999.0
 237   23:55   41.3    72    5.3   127     8.9   999.00    695.9    999.0    999000   999000   999.0    999000   999.0
 238    0:00   41.2    72    3.6   146     5.9   999.00    696.0    999.0    999000   999000   999.0    999000   999.0
 238    0:05   41.5    71    4.4   146     7.0   999.00    696.1    999.0    999000   999000   999.0    999000   999.0
 238    0:10   41.8    68    5.3   160     7.9   999.00    696.1    999.0    999000   999000   999.0    999000   999.0
 238    0:15   42.2    67    3.7   183     6.8   999.00    696.1    999.0    999000   999000   999.0    999000   999.0
 238    0:20   43.1    61    5.3   199    10.7   999.00    696.1    999.0    999000   999000   999.0    999000   999.0
 238    0:25   44.0    58    5.9   200     9.1   999.00    696.0    999.0    999000   999000   999.0    999000   999.0
 238    0:30   44.3    56    4.3   207     8.1   999.00    696.0    999.0    999000   999000   999.0    999000   999.0
 238    0:35   43.9    58    3.9   203     7.9   999.00    695.9    999.0    999000   999000   999.0    999000   999.0
 238    0:40   43.4    60    4.2   202     8.9   999.00    696.0    999.0    999000   999000   999.0    999000   999.0
 238    0:45   43.5    60    4.3   182     6.8   999.00    696.0    999.0    999000   999000   999.0    999000   999.0
 238    0:50   43.7    58    4.7   185     7.8   999.00    695.9    999.0    999000   999000   999.0    999000   999.0
 238    0:55   43.4    60    4.0   165     6.1   999.00    696.0    999.0    999000   999000   999.0    999000   999.0
 238    1:00   43.3    60    3.4   165     4.0   999.00    696.0    999.0    999000   999000   999.0    999000   999.0
 238    1:05   43.3    61    3.5   150     5.2   999.00    696.1    999.0    999000   999000   999.0    999000   999.0
 238    1:10   43.0    62    3.7   154     5.2   999.00    696.1    999.0    999000   999000   999.0    999000   999.0
 238    1:15   43.2    60    3.4   186     4.4   999.00    696.1    999.0    999000   999000   999.0    999000   999.0
 238    1:20   43.8    57    4.8   194     8.1   999.00    696.1    999.0    999000   999000   999.0    999000   999.0
 238    1:25   44.1    56    4.4   193     7.0   999.00    696.1    999.0    999000   999000   999.0    999000   999.0
 238    1:30   44.1    56    5.1   191     8.7   999.00    696.0    999.0    999000   999000   999.0    999000   999.0
 238    1:35   43.8    57    4.8   186     7.2   999.00    696.0    999.0    999000   999000   999.0    999000   999.0
 238    1:40   43.5    58    4.0   181     6.3   999.00    696.1    999.0    999000   999000   999.0    999000   999.0
 238    1:45   43.6    58    4.0   193     6.3   999.00    696.0    999.0    999000   999000   999.0    999000   999.0
 238    1:50   43.8    57    6.0   186     8.5   999.00    695.9    999.0    999000   999000   999.0    999000   999.0
 238    1:55   44.1    56    6.3   194     9.8   999.00    696.0    999.0    999000   999000   999.0    999000   999.0
 238    2:00   44.0    56    7.1   196    10.2   999.00    695.9    999.0    999000   999000   999.0    999000   999.0
 238    2:05   44.1    55    8.3   197    11.1   999.00    696.0    999.0    999000   999000   999.0    999000   999.0
 238    2:10   44.0    56    6.4   204    12.2   999.00    695.9    999.0    999000   999000   999.0    999000   999.0
 238    2:15   44.1    55    6.2   209    10.9   999.00    695.9    999.0    999000   999000   999.0    999000   999.0
 238    2:20   44.2    54    6.3   206    11.8   999.00    695.9    999.0    999000   999000   999.0    999000   999.0
 238    2:25   44.1    54    7.2   206    11.3   999.00    696.0    999.0    999000   999000   999.0    999000   999.0
 238    2:30   43.9    55    7.0   195    12.8   999.00    696.0    999.0    999000   999000   999.0    999000   999.0
 238    2:35   43.5    57    7.1   193    10.2   999.00    695.9    999.0    999000   999000   999.0    999000   999.0
 238    2:40   43.5    56    7.6   199    11.1   999.00    695.9    999.0    999000   999000   999.0    999000   999.0
 238    2:45   43.5    56    7.5   199    12.8   999.00    695.8    999.0    999000   999000   999.0    999000   999.0
 238    2:50   43.3    57    8.0   190    10.2   999.00    695.8    999.0    999000   999000   999.0    999000   999.0
 238    2:55   43.1    57    8.9   185    13.7   999.00    695.7    999.0    999000   999000   999.0    999000   999.0
 238    3:00   43.4    56   11.1   188    14.1   999.00    695.8    999.0    999000   999000   999.0    999000   999.0
 238    3:05   43.5    56   10.9   187    13.0   999.00    695.8    999.0    999000   999000   999.0    999000   999.0
 238    3:10   43.2    57   10.6   177    12.6   999.00    695.8    999.0    999000   999000   999.0    999000   999.0
 238    3:15   43.0    58    9.7   172    13.0   999.00    695.7    999.0    999000   999000   999.0    999000   999.0
 238    3:20   42.6    60    7.7   160    10.2   999.00    695.7    999.0    999000   999000   999.0    999000   999.0
 238    3:25   41.9    63    8.1   155    11.1   999.00    695.8    999.0    999000   999000   999.0    999000   999.0
 238    3:30   41.5    65    8.3   147     9.8   999.00    695.8    999.0    999000   999000   999.0    999000   999.0
 238    3:35   41.4    64    8.7   151    10.7   999.00    695.7    999.0    999000   999000   999.0    999000   999.0
 238    3:40   41.6    64    9.2   162    10.7   999.00    695.7    999.0    999000   999000   999.0    999000   999.0
 238    3:45   42.1    61   10.0   168    14.4   999.00    695.7    999.0    999000   999000   999.0    999000   999.0
 238    3:50   42.3    60   10.1   184    12.4   999.00    695.7    999.0    999000   999000   999.0    999000   999.0
 238    3:55   42.7    58   12.0   188    16.5   999.00    695.7    999.0    999000   999000   999.0    999000   999.0
 238    4:00   42.9    57   10.5   199    14.3   999.00    695.7    999.0    999000   999000   999.0    999000   999.0
 238    4:05   42.8    57   11.7   201    17.4   999.00    695.7    999.0    999000   999000   999.0    999000   999.0

Return to DRI Storm Peak Lab. graphs page.


Western Regional Climate Center,wrcc@dri.edu